createdAt,value
2023-01-28T00:00:01.194Z,29.6
2023-01-28T00:05:24.462Z,29.5
2023-01-28T00:10:46.449Z,29.4
2023-01-28T00:16:09.221Z,29.4
2023-01-28T00:21:31.877Z,29.4
2023-01-28T00:26:55.114Z,29.4
2023-01-28T00:32:18.077Z,29.3
2023-01-28T00:37:40.840Z,29.3
2023-01-28T00:43:03.551Z,29.3
2023-01-28T00:48:26.328Z,29.3
2023-01-28T00:53:33.503Z,29.2
2023-01-28T00:58:56.277Z,29.2
2023-01-28T01:04:21.143Z,29.1
2023-01-28T01:09:43.948Z,29.1
2023-01-28T01:15:06.889Z,29.1
2023-01-28T01:20:30.246Z,29.1
2023-01-28T01:25:51.770Z,29
2023-01-28T01:31:14.269Z,29
2023-01-28T01:36:37.916Z,29
2023-01-28T01:41:45.509Z,28.9
2023-01-28T01:47:08.894Z,28.9
2023-01-28T01:52:16.028Z,28.9
2023-01-28T01:57:38.557Z,28.8
2023-01-28T02:03:01.459Z,29
2023-01-28T02:08:08.572Z,29.9
2023-01-28T02:13:31.503Z,30.9
2023-01-28T02:18:47.427Z,32
2023-01-28T02:23:53.765Z,32.9
2023-01-28T02:29:01.728Z,33.9
2023-01-28T02:34:08.757Z,34.8
2023-01-28T02:39:00.907Z,35.6
2023-01-28T02:44:07.976Z,36.3
2023-01-28T02:48:44.370Z,36.9
2023-01-28T02:53:35.485Z,37.6
2023-01-28T02:58:42.492Z,38.2
2023-01-28T03:03:50.447Z,38.9
2023-01-28T03:08:57.868Z,39.6
2023-01-28T03:14:20.298Z,40.2
2023-01-28T03:19:42.817Z,40.9
2023-01-28T03:25:04.949Z,41.5
2023-01-28T03:30:28.772Z,42.2
2023-01-28T03:35:36.168Z,42.5
2023-01-28T03:40:43.030Z,42.6
2023-01-28T03:45:50.387Z,42.6
2023-01-28T03:51:13.656Z,42.7
2023-01-28T03:56:38.022Z,42.7
2023-01-28T04:02:01.030Z,42.7
2023-01-28T04:07:22.940Z,42.6
2023-01-28T04:11:58.507Z,42.6
2023-01-28T04:16:49.993Z,42.6
2023-01-28T04:21:41.218Z,42.6
2023-01-28T04:26:48.434Z,42.5
2023-01-28T04:32:11.734Z,42.4
2023-01-28T04:37:33.754Z,42.4
2023-01-28T04:42:56.059Z,42.3
2023-01-28T04:48:18.944Z,42.3
2023-01-28T04:53:25.899Z,42.2
2023-01-28T04:58:48.218Z,42.1
2023-01-28T05:04:11.173Z,42.1
2023-01-28T05:09:33.154Z,42
2023-01-28T05:14:55.699Z,41.9
2023-01-28T05:20:19.092Z,41.8
2023-01-28T05:25:41.349Z,41.8
2023-01-28T05:31:03.880Z,41.7
2023-01-28T05:36:26.476Z,41.6
2023-01-28T05:41:48.337Z,41.6
2023-01-28T05:47:11.205Z,41.5
2023-01-28T05:52:35.564Z,41.4
2023-01-28T05:57:42.467Z,41.3
2023-01-28T06:03:05.793Z,41.3
2023-01-28T06:08:13.376Z,41.2
2023-01-28T06:13:20.410Z,41.1
2023-01-28T06:18:43.151Z,41.1
2023-01-28T06:24:05.650Z,41
2023-01-28T06:29:11.648Z,40.9
2023-01-28T06:34:19.242Z,40.9
2023-01-28T06:39:10.799Z,40.8
2023-01-28T06:44:17.849Z,40.7
2023-01-28T06:49:43.236Z,40.6
2023-01-28T06:55:08.741Z,40.6
2023-01-28T07:00:31.460Z,40.6
2023-01-28T07:05:54.320Z,40.5
2023-01-28T07:11:17.212Z,40.4
2023-01-28T07:16:39.636Z,40.3
2023-01-28T07:22:02.736Z,40.3
2023-01-28T07:27:27.882Z,40.2
2023-01-28T07:32:51.249Z,40.1
2023-01-28T07:38:13.669Z,40.1
2023-01-28T07:43:36.086Z,40
2023-01-28T07:48:42.764Z,39.9
2023-01-28T07:54:05.538Z,39.9
2023-01-28T07:59:30.775Z,39.8
2023-01-28T08:04:53.133Z,39.8
2023-01-28T08:10:16.428Z,39.7
2023-01-28T08:15:38.732Z,39.6
2023-01-28T08:21:01.160Z,39.5
2023-01-28T08:26:24.204Z,37.8
2023-01-28T08:31:47.393Z,36.4
2023-01-28T08:37:09.942Z,35.8
2023-01-28T08:42:31.895Z,35.4
2023-01-28T08:47:57.325Z,35.3
2023-01-28T08:53:22.212Z,35.2
2023-01-28T08:58:47.807Z,35.1
2023-01-28T09:04:28.887Z,35
2023-01-28T09:09:51.215Z,34.9
2023-01-28T09:15:13.893Z,34.9
2023-01-28T09:20:38.452Z,34.9
2023-01-28T09:26:01.698Z,34.8
2023-01-28T09:31:10.745Z,34.8
2023-01-28T09:36:33.764Z,34.7
2023-01-28T09:41:56.507Z,33.1
2023-01-28T09:47:19.184Z,28.4
2023-01-28T09:52:42.132Z,25.7
2023-01-28T09:58:05.849Z,24.4
2023-01-28T10:03:29.944Z,23.6
2023-01-28T10:08:52.539Z,23
2023-01-28T10:14:15.560Z,22.6
2023-01-28T10:19:55.226Z,22.1
2023-01-28T10:25:17.852Z,21.8
2023-01-28T10:30:40.166Z,21.6
2023-01-28T10:36:03.563Z,21.4
2023-01-28T10:41:26.666Z,21.3
2023-01-28T10:47:02.437Z,21.1
2023-01-28T10:52:25.494Z,20.9
2023-01-28T10:57:48.461Z,20.8
2023-01-28T11:02:56.434Z,20.8
2023-01-28T11:08:18.654Z,20.6
2023-01-28T11:13:56.768Z,20.6
2023-01-28T11:19:03.619Z,20.4
2023-01-28T11:24:26.667Z,20.4
2023-01-28T11:29:48.987Z,20.4
2023-01-28T11:35:13.157Z,20.3
2023-01-28T11:40:38.209Z,20.3
2023-01-28T11:46:02.683Z,20.2
2023-01-28T11:51:28.015Z,20.1
2023-01-28T11:57:20.409Z,19.9
2023-01-28T12:02:43.612Z,19.9
2023-01-28T12:08:06.507Z,19.8
2023-01-28T12:13:29.306Z,19.8
2023-01-28T12:18:36.333Z,19.8
2023-01-28T12:23:58.912Z,19.7
2023-01-28T12:29:22.399Z,19.6
2023-01-28T12:34:46.159Z,19.6
2023-01-28T12:40:08.761Z,19.6
2023-01-28T12:45:31.471Z,19.6
2023-01-28T12:50:54.495Z,19.6
2023-01-28T12:56:17.086Z,19.5
2023-01-28T13:01:40.512Z,19.4
2023-01-28T13:07:03.653Z,19.4
2023-01-28T13:12:26.223Z,19.4
2023-01-28T13:17:59.906Z,19.4
2023-01-28T13:23:28.949Z,19.4
2023-01-28T13:28:54.044Z,19.4
2023-01-28T13:34:17.168Z,19.4
2023-01-28T13:39:39.600Z,19.3
2023-01-28T13:45:01.633Z,19.4
2023-01-28T13:50:25.066Z,19.3
2023-01-28T13:56:01.754Z,19.3
2023-01-28T14:01:10.826Z,19.3
2023-01-28T14:06:34.412Z,19.3
2023-01-28T14:11:58.029Z,19.3
2023-01-28T14:17:21.165Z,19.3
2023-01-28T14:22:44.494Z,19.3
2023-01-28T14:28:07.461Z,19.3
2023-01-28T14:33:33.152Z,19.2
2023-01-28T14:38:56.283Z,19.1
2023-01-28T14:44:03.828Z,19.1
2023-01-28T14:49:28.018Z,19.1
2023-01-28T14:54:51.020Z,19
2023-01-28T15:00:16.394Z,19
2023-01-28T15:05:53.780Z,18.9
2023-01-28T15:11:16.639Z,18.9
2023-01-28T15:16:39.706Z,18.9
2023-01-28T15:22:02.649Z,18.9
2023-01-28T15:27:27.710Z,18.9
2023-01-28T15:32:52.598Z,18.9
2023-01-28T15:38:15.091Z,18.9
2023-01-28T15:43:38.243Z,18.9
2023-01-28T15:49:01.322Z,18.9
2023-01-28T15:54:24.122Z,18.8
2023-01-28T15:59:50.740Z,18.3
2023-01-28T16:05:14.047Z,17.8
2023-01-28T16:10:23.904Z,17.5
2023-01-28T16:15:47.520Z,17.4
2023-01-28T16:20:55.954Z,17.3
2023-01-28T16:26:19.911Z,17.2
2023-01-28T16:31:45.551Z,17.1
2023-01-28T16:47:14.726Z,16.9
2023-01-28T16:52:41.197Z,16.9
2023-01-28T16:58:23.979Z,16.9
2023-01-28T17:03:48.371Z,16.9
2023-01-28T17:09:11.503Z,16.9
2023-01-28T17:14:35.461Z,16.8
2023-01-28T17:19:44.343Z,16.8
2023-01-28T17:24:53.200Z,16.7
2023-01-28T17:30:17.913Z,16.7
2023-01-28T17:35:42.999Z,16.7
2023-01-28T17:41:07.153Z,16.6
2023-01-28T17:46:33.474Z,16.6
2023-01-28T17:52:02.024Z,16.6
2023-01-28T17:57:30.997Z,16.6
2023-01-28T18:03:04.223Z,16.6
2023-01-28T18:08:32.168Z,16.6
2023-01-28T18:13:59.877Z,16.6
2023-01-28T18:19:26.490Z,16.6
2023-01-28T18:25:05.099Z,16.6
2023-01-28T18:30:40.817Z,16.5
2023-01-28T18:35:56.759Z,16.5
2023-01-28T18:41:09.707Z,16.5
2023-01-28T18:46:30.862Z,16.5
2023-01-28T18:52:19.440Z,16.5
2023-01-28T18:58:01.601Z,16.5
2023-01-28T19:03:41.800Z,16.5
2023-01-28T19:09:03.248Z,16.4
2023-01-28T19:14:26.300Z,16.5
2023-01-28T19:20:01.685Z,16.5
2023-01-28T19:25:50.797Z,16.4
2023-01-28T19:31:29.183Z,16.5
2023-01-28T19:37:05.399Z,16.5
2023-01-28T19:42:40.101Z,16.5
2023-01-28T19:48:00.900Z,16.4
2023-01-28T19:53:19.944Z,16.5
2023-01-28T19:58:37.173Z,16.5
2023-01-28T20:04:00.258Z,16.5
2023-01-28T20:09:47.124Z,16.4
2023-01-28T20:15:27.869Z,16.4
2023-01-28T20:21:07.486Z,17.3
2023-01-28T20:26:44.432Z,18.8
2023-01-28T20:32:37.828Z,20.4
2023-01-28T20:38:13.608Z,22.2
2023-01-28T20:43:49.431Z,23.9
2023-01-28T20:49:09.602Z,25.5
2023-01-28T20:54:40.988Z,27.1
2023-01-28T21:00:13.618Z,28.6
2023-01-28T21:05:34.086Z,29.9
2023-01-28T21:10:52.664Z,31.3
2023-01-28T21:16:03.502Z,31.9
2023-01-28T21:20:55.391Z,32.3
2023-01-28T21:26:03.488Z,32.3
2023-01-28T21:31:11.529Z,30
2023-01-28T21:36:36.438Z,28.3
2023-01-28T21:42:03.570Z,27.4
2023-01-28T21:46:59.628Z,27.1
2023-01-28T21:52:07.031Z,26.9
2023-01-28T21:57:18.457Z,26.7
2023-01-28T22:02:26.045Z,26.6
2023-01-28T22:07:33.073Z,26.5
2023-01-28T22:12:25.004Z,26.4
2023-01-28T22:17:16.921Z,26.4
2023-01-28T22:22:27.105Z,26.4
2023-01-28T22:27:34.228Z,26.3
2023-01-28T22:32:42.470Z,26.3
2023-01-28T22:37:33.767Z,26.3
2023-01-28T22:42:40.469Z,26.3
2023-01-28T22:47:48.253Z,26.3
2023-01-28T22:52:54.749Z,26.3
2023-01-28T22:58:01.321Z,26.2
2023-01-28T23:03:40.168Z,26.1
2023-01-28T23:08:31.175Z,25.9
2023-01-28T23:13:53.269Z,25.9
2023-01-28T23:19:16.340Z,25.9
2023-01-28T23:24:23.189Z,25.9
2023-01-28T23:29:15.655Z,25.9
2023-01-28T23:34:23.340Z,25.9
2023-01-28T23:39:30.126Z,25.9
2023-01-28T23:44:52.609Z,25.8
2023-01-28T23:50:21.377Z,25.8
2023-01-28T23:55:43.197Z,25.8
